Aviation Digital Data Service (ADDS)

Output produced by METARs form (1206 UTC 24 March 2017)
found at http://www.aviationweather.gov/adds/metars/
 
FEFF 241100Z VRB02KT 9999 FEW020 32/22 Q1012 NOSIG
TAF FEFF 241100Z 2412/2518 21006KT 9999 SCT023 
     BECMG 2413/2416 FEW040CB 
     TEMPO 4000 TSRA 
     BECMG 2418/2420 VRB03KT 8000 NSW FEW010
       
FEFT 241000Z 28017KT 9999 SCT023 28/21 Q1011